createdAt,value
2023-05-16T00:01:59.303Z,2.33
2023-05-16T00:04:27.698Z,2.30
2023-05-16T00:06:57.260Z,2.30
2023-05-16T00:09:25.395Z,2.97
2023-05-16T00:11:53.480Z,2.60
2023-05-16T00:14:21.919Z,2.40
2023-05-16T00:16:50.842Z,2.43
2023-05-16T00:19:19.160Z,2.10
2023-05-16T00:21:47.390Z,2.27
2023-05-16T00:24:17.105Z,2.30
2023-05-16T00:26:45.161Z,1.90
2023-05-16T00:29:13.256Z,2.30
2023-05-16T00:31:41.528Z,2.03
2023-05-16T00:34:09.847Z,2.10
2023-05-16T00:36:38.041Z,2.07
2023-05-16T00:39:06.515Z,1.90
2023-05-16T00:41:36.664Z,2.00
2023-05-16T00:44:04.936Z,2.10
2023-05-16T00:46:33.134Z,2.27
2023-05-16T00:49:01.480Z,2.20
2023-05-16T00:51:30.334Z,2.50
2023-05-16T00:53:58.897Z,2.07
2023-05-16T00:56:27.192Z,1.90
2023-05-16T00:58:56.838Z,1.80
2023-05-16T01:01:27.611Z,2.37
2023-05-16T01:03:56.573Z,2.03
2023-05-16T01:06:24.793Z,2.03
2023-05-16T01:08:52.956Z,2.00
2023-05-16T01:11:28.189Z,2.17
2023-05-16T01:14:05.188Z,2.10
2023-05-16T01:16:41.286Z,2.07
2023-05-16T01:19:22.476Z,1.60
2023-05-16T01:22:02.479Z,1.83
2023-05-16T01:24:35.780Z,2.20
2023-05-16T01:27:07.173Z,2.77
2023-05-16T01:29:35.312Z,1.67
2023-05-16T01:32:03.657Z,2.10
2023-05-16T01:34:32.056Z,1.90
2023-05-16T01:37:10.612Z,1.70
2023-05-16T01:39:45.453Z,1.53
2023-05-16T01:42:17.180Z,1.97
2023-05-16T01:44:51.939Z,1.60
2023-05-16T01:47:22.267Z,2.07
2023-05-16T01:50:02.407Z,1.90
2023-05-16T01:52:36.765Z,2.10
2023-05-16T01:55:11.379Z,1.80
2023-05-16T01:57:42.332Z,1.93
2023-05-16T02:00:12.139Z,2.00
2023-05-16T02:02:43.087Z,2.40
2023-05-16T02:05:11.469Z,2.10
2023-05-16T02:07:40.161Z,2.23
2023-05-16T02:10:09.414Z,2.73
2023-05-16T02:12:37.962Z,1.97
2023-05-16T02:15:08.986Z,2.20
2023-05-16T02:17:37.206Z,2.40
2023-05-16T02:20:07.243Z,2.30
2023-05-16T02:22:36.225Z,2.30
2023-05-16T02:25:05.285Z,2.10
2023-05-16T02:27:33.970Z,2.17
2023-05-16T02:30:02.379Z,2.10
2023-05-16T02:32:32.046Z,2.40
2023-05-16T02:35:00.195Z,2.00
2023-05-16T02:37:28.311Z,2.50
2023-05-16T02:39:56.468Z,2.90
2023-05-16T02:42:24.567Z,2.17
2023-05-16T02:44:52.817Z,2.00
2023-05-16T02:47:21.165Z,2.13
2023-05-16T02:49:52.316Z,2.57
2023-05-16T02:52:20.647Z,2.30
2023-05-16T02:55:04.128Z,2.33
2023-05-16T02:57:37.548Z,2.37
2023-05-16T03:00:06.726Z,2.20
2023-05-16T03:02:35.038Z,2.17
2023-05-16T03:05:05.345Z,1.93
2023-05-16T03:07:33.536Z,2.00
2023-05-16T03:10:01.799Z,2.90
2023-05-16T03:12:30.011Z,2.70
2023-05-16T03:14:58.511Z,3.20
2023-05-16T03:17:26.755Z,2.60
2023-05-16T03:19:55.173Z,2.50
2023-05-16T03:22:24.694Z,2.57
2023-05-16T03:24:52.756Z,2.83
2023-05-16T03:27:21.096Z,2.80
2023-05-16T03:29:51.593Z,2.67
2023-05-16T03:32:19.954Z,2.53
2023-05-16T03:34:48.068Z,2.63
2023-05-16T03:37:16.577Z,2.33
2023-05-16T03:39:46.201Z,2.73
2023-05-16T03:42:14.259Z,2.80
2023-05-16T03:44:42.475Z,2.70
2023-05-16T03:47:10.783Z,2.37
2023-05-16T03:49:38.910Z,2.33
2023-05-16T03:52:07.472Z,2.30
2023-05-16T03:54:35.518Z,2.53
2023-05-16T03:57:05.617Z,2.43
2023-05-16T03:59:34.676Z,2.40
2023-05-16T04:02:02.932Z,2.50
2023-05-16T04:04:31.189Z,2.23
2023-05-16T04:06:59.665Z,2.63
2023-05-16T04:09:27.918Z,3.43
2023-05-16T04:11:56.732Z,2.97
2023-05-16T04:14:26.233Z,2.80
2023-05-16T04:16:54.631Z,2.90
2023-05-16T04:19:23.087Z,2.80
2023-05-16T04:21:52.284Z,3.00
2023-05-16T04:24:20.435Z,3.37
2023-05-16T04:26:48.620Z,2.80
2023-05-16T04:29:17.378Z,2.97
2023-05-16T04:31:46.922Z,3.23
2023-05-16T04:34:16.058Z,4.00
2023-05-16T04:36:44.241Z,3.50
2023-05-16T04:39:12.495Z,3.70
2023-05-16T04:41:40.616Z,3.40
2023-05-16T04:44:09.009Z,3.97
2023-05-16T04:46:37.150Z,3.43
2023-05-16T04:49:06.985Z,3.03
2023-05-16T04:51:35.092Z,3.37
2023-05-16T04:54:03.224Z,3.67
2023-05-16T04:56:31.456Z,3.77
2023-05-16T04:58:59.560Z,3.10
2023-05-16T05:01:27.884Z,3.43
2023-05-16T05:03:56.188Z,3.03
2023-05-16T05:06:25.710Z,4.07
2023-05-16T05:08:55.243Z,3.50
2023-05-16T05:11:23.400Z,3.00
2023-05-16T05:13:52.923Z,3.00
2023-05-16T05:16:21.288Z,2.97
2023-05-16T05:18:49.779Z,3.17
2023-05-16T05:21:18.557Z,3.53
2023-05-16T05:23:49.773Z,3.57
2023-05-16T05:26:18.178Z,3.40
2023-05-16T05:28:53.991Z,3.70
2023-05-16T05:31:29.799Z,3.87
2023-05-16T05:33:58.042Z,3.40
2023-05-16T05:36:26.222Z,3.40
2023-05-16T05:38:55.785Z,3.70
2023-05-16T05:41:24.561Z,3.97
2023-05-16T05:43:52.876Z,3.10
2023-05-16T05:46:21.043Z,4.00
2023-05-16T05:48:49.670Z,3.87
2023-05-16T05:51:17.899Z,3.20
2023-05-16T05:53:46.249Z,3.70
2023-05-16T05:56:15.893Z,3.77
2023-05-16T05:58:43.994Z,3.23
2023-05-16T06:01:12.381Z,4.00
2023-05-16T06:03:40.693Z,4.40
2023-05-16T06:06:09.710Z,3.80
2023-05-16T06:08:37.824Z,3.70
2023-05-16T06:11:06.461Z,3.73
2023-05-16T06:13:36.453Z,3.90
2023-05-16T06:16:06.230Z,4.00
2023-05-16T06:18:35.817Z,3.63
2023-05-16T06:21:04.286Z,3.80
2023-05-16T06:23:32.675Z,4.50
2023-05-16T06:26:00.925Z,3.60
2023-05-16T06:28:29.134Z,4.63
2023-05-16T06:30:58.886Z,4.23
2023-05-16T06:33:27.229Z,4.07
2023-05-16T06:35:55.389Z,4.00
2023-05-16T06:38:23.558Z,4.10
2023-05-16T06:40:51.669Z,3.83
2023-05-16T06:43:19.952Z,3.97
2023-05-16T06:45:48.239Z,4.83
2023-05-16T06:48:19.970Z,4.27
2023-05-16T06:50:49.507Z,4.70
2023-05-16T06:53:17.716Z,4.40
2023-05-16T06:55:46.103Z,4.23
2023-05-16T06:58:14.381Z,4.33
2023-05-16T07:00:44.210Z,4.43
2023-05-16T07:03:12.518Z,3.93
2023-05-16T07:05:42.555Z,4.30
2023-05-16T07:08:12.414Z,3.53
2023-05-16T07:10:40.983Z,4.10
2023-05-16T07:13:09.229Z,4.23
2023-05-16T07:15:37.601Z,3.47
2023-05-16T07:18:06.043Z,4.03
2023-05-16T07:20:34.581Z,3.43
2023-05-16T07:23:04.240Z,3.80
2023-05-16T07:25:33.686Z,3.60
2023-05-16T07:28:04.585Z,4.20
2023-05-16T07:30:33.120Z,3.97
2023-05-16T07:33:01.458Z,3.90
2023-05-16T07:35:29.968Z,4.40
2023-05-16T07:37:58.494Z,3.93
2023-05-16T07:40:29.644Z,3.83
2023-05-16T07:43:10.034Z,5.57
2023-05-16T07:45:38.476Z,5.53
2023-05-16T07:48:07.140Z,5.90
2023-05-16T07:50:35.679Z,4.63
2023-05-16T07:53:03.951Z,4.97
2023-05-16T07:55:33.687Z,5.33
2023-05-16T07:58:02.150Z,4.40
2023-05-16T08:00:30.981Z,5.13
2023-05-16T08:02:59.445Z,5.10
2023-05-16T08:05:28.389Z,4.67
2023-05-16T08:07:56.955Z,4.50
2023-05-16T08:10:25.220Z,5.13
2023-05-16T08:12:54.985Z,5.13
2023-05-16T08:15:23.350Z,4.37
2023-05-16T08:17:51.938Z,4.83
2023-05-16T08:20:20.460Z,5.33
2023-05-16T08:22:48.831Z,4.63
2023-05-16T08:25:17.130Z,4.10
2023-05-16T08:27:46.745Z,4.27
2023-05-16T08:30:16.892Z,4.37
2023-05-16T08:32:45.347Z,3.70
2023-05-16T08:35:14.021Z,3.80
2023-05-16T08:37:42.447Z,4.27
2023-05-16T08:40:12.203Z,4.67
2023-05-16T08:42:42.372Z,3.80
2023-05-16T08:45:12.684Z,3.83
2023-05-16T08:47:43.861Z,3.77
2023-05-16T08:50:13.305Z,4.30
2023-05-16T08:52:44.754Z,4.00
2023-05-16T08:55:14.870Z,4.23
2023-05-16T08:57:43.228Z,3.57
2023-05-16T09:00:13.384Z,3.43
2023-05-16T09:02:44.723Z,3.50
2023-05-16T09:05:14.478Z,3.20
2023-05-16T09:07:43.210Z,3.83
2023-05-16T09:10:12.305Z,3.67
2023-05-16T09:12:41.245Z,3.73
2023-05-16T09:15:10.995Z,3.67
2023-05-16T09:17:42.548Z,3.57
2023-05-16T09:20:14.607Z,3.70
2023-05-16T09:22:53.291Z,3.70
2023-05-16T09:25:30.343Z,3.83
2023-05-16T09:28:01.597Z,3.53
2023-05-16T09:30:32.247Z,4.07
2023-05-16T09:33:01.329Z,3.57
2023-05-16T09:35:44.303Z,3.07
2023-05-16T09:38:19.595Z,3.60
2023-05-16T09:40:47.917Z,3.30
2023-05-16T09:43:18.665Z,3.37
2023-05-16T09:45:49.141Z,3.47
2023-05-16T09:48:18.773Z,4.07
2023-05-16T09:50:54.432Z,3.63
2023-05-16T09:53:30.358Z,3.20
2023-05-16T09:56:03.555Z,3.57
2023-05-16T09:58:32.705Z,3.23
2023-05-16T10:01:01.112Z,3.33
2023-05-16T10:03:30.485Z,3.80
2023-05-16T10:06:02.065Z,3.47
2023-05-16T10:08:36.264Z,3.67
2023-05-16T10:11:06.579Z,3.70
2023-05-16T10:13:36.957Z,3.60
2023-05-16T10:16:09.137Z,3.63
2023-05-16T10:18:38.239Z,3.70
2023-05-16T10:21:11.979Z,3.40
2023-05-16T10:23:43.950Z,3.60
2023-05-16T10:26:14.910Z,3.87
2023-05-16T10:28:44.128Z,4.00
2023-05-16T10:31:13.191Z,4.30
2023-05-16T10:33:41.932Z,4.20
2023-05-16T10:36:13.227Z,4.37
2023-05-16T10:38:42.584Z,4.07
2023-05-16T10:41:11.510Z,3.80
2023-05-16T10:43:40.534Z,4.30
2023-05-16T10:46:12.705Z,3.97
2023-05-16T10:48:42.437Z,3.57
2023-05-16T10:51:36.772Z,3.57
2023-05-16T10:54:10.715Z,4.23
2023-05-16T10:56:39.250Z,3.87
2023-05-16T10:59:25.296Z,4.57
2023-05-16T11:01:57.842Z,4.30
2023-05-16T11:04:51.365Z,3.50
2023-05-16T11:07:23.349Z,3.23
2023-05-16T11:10:05.508Z,3.10
2023-05-16T11:12:45.340Z,3.30
2023-05-16T11:15:25.966Z,3.37
2023-05-16T11:18:07.079Z,3.10
2023-05-16T11:20:36.801Z,2.77
2023-05-16T11:23:27.214Z,2.80
2023-05-16T11:25:57.462Z,3.37
2023-05-16T11:28:27.420Z,3.47
2023-05-16T11:30:57.622Z,3.10
2023-05-16T11:33:27.881Z,3.27
2023-05-16T11:36:15.317Z,3.30
2023-05-16T11:38:46.072Z,3.30
2023-05-16T11:41:16.758Z,3.10
2023-05-16T11:43:46.324Z,3.40
2023-05-16T11:46:15.144Z,2.97
2023-05-16T11:48:45.529Z,3.10
2023-05-16T11:51:14.960Z,3.37
2023-05-16T11:53:43.204Z,2.83
2023-05-16T11:56:13.231Z,2.43
2023-05-16T11:58:42.307Z,2.73
2023-05-16T12:01:11.414Z,2.50
2023-05-16T12:03:39.993Z,2.40
2023-05-16T12:06:08.670Z,2.53
2023-05-16T12:08:37.151Z,2.37
2023-05-16T12:11:05.451Z,3.03
2023-05-16T12:13:35.557Z,2.13
2023-05-16T12:16:03.941Z,2.50
2023-05-16T12:18:32.262Z,2.47
2023-05-16T12:21:00.667Z,2.20
2023-05-16T12:23:29.510Z,2.07
2023-05-16T12:26:01.077Z,2.07
2023-05-16T12:28:35.837Z,2.20
2023-05-16T12:31:04.286Z,1.63
2023-05-16T12:33:32.795Z,2.00
2023-05-16T12:36:01.962Z,2.27
2023-05-16T12:38:30.666Z,1.97
2023-05-16T12:41:00.231Z,2.30
2023-05-16T12:43:28.753Z,1.73
2023-05-16T12:45:58.958Z,2.13
2023-05-16T12:48:35.408Z,2.30
2023-05-16T12:51:15.741Z,2.00
2023-05-16T12:53:54.405Z,2.30
2023-05-16T12:56:26.495Z,2.10
2023-05-16T12:58:54.745Z,2.00
2023-05-16T13:01:24.298Z,2.03
2023-05-16T13:03:52.700Z,1.80
2023-05-16T13:06:21.604Z,1.93
2023-05-16T13:08:50.144Z,1.90
2023-05-16T13:11:19.230Z,1.83
2023-05-16T13:13:47.512Z,1.87
2023-05-16T13:16:15.781Z,1.90
2023-05-16T13:18:45.606Z,1.87
2023-05-16T13:21:14.160Z,1.73
2023-05-16T13:23:42.568Z,1.50
2023-05-16T13:26:10.897Z,1.70
2023-05-16T13:28:39.119Z,1.80
2023-05-16T13:31:07.894Z,1.77
2023-05-16T13:33:36.439Z,1.60
2023-05-16T13:36:09.003Z,1.80
2023-05-16T13:38:38.029Z,1.90
2023-05-16T13:41:06.235Z,1.40
2023-05-16T13:43:34.555Z,1.43
2023-05-16T13:46:02.789Z,1.80
2023-05-16T13:48:31.053Z,1.80
2023-05-16T13:50:59.334Z,2.03
2023-05-16T13:53:29.024Z,1.80
2023-05-16T13:55:57.240Z,1.93
2023-05-16T13:58:25.637Z,1.80
2023-05-16T14:00:54.490Z,1.93
2023-05-16T14:03:23.397Z,1.90
2023-05-16T14:05:52.024Z,1.60
2023-05-16T14:08:20.248Z,2.00
2023-05-16T14:10:49.952Z,1.80
2023-05-16T14:13:18.142Z,1.73
2023-05-16T14:15:46.569Z,1.80
2023-05-16T14:18:14.884Z,2.00
2023-05-16T14:20:43.151Z,2.40
2023-05-16T14:23:11.401Z,1.90
2023-05-16T14:25:39.663Z,1.93
2023-05-16T14:28:09.342Z,2.00
2023-05-16T14:30:37.688Z,1.97
2023-05-16T14:33:06.313Z,1.80
2023-05-16T14:35:35.066Z,2.07
2023-05-16T14:38:03.311Z,2.07
2023-05-16T14:40:31.809Z,2.40
2023-05-16T14:42:59.916Z,2.00
2023-05-16T14:45:30.399Z,2.10
2023-05-16T14:47:58.828Z,2.37
2023-05-16T14:50:27.177Z,2.80
2023-05-16T14:52:55.841Z,2.80
2023-05-16T14:55:24.098Z,2.23
2023-05-16T14:57:57.205Z,2.20
2023-05-16T15:00:27.720Z,2.00
2023-05-16T15:02:57.697Z,2.73
2023-05-16T15:05:26.574Z,2.30
2023-05-16T15:07:55.159Z,2.33
2023-05-16T15:10:23.520Z,2.47
2023-05-16T15:12:51.798Z,2.60
2023-05-16T15:15:20.243Z,2.67
2023-05-16T15:17:48.684Z,2.70
2023-05-16T15:20:19.462Z,2.17
2023-05-16T15:22:49.722Z,2.47
2023-05-16T15:25:18.248Z,2.43
2023-05-16T15:27:46.621Z,2.40
2023-05-16T15:30:15.619Z,2.77
2023-05-16T15:32:43.990Z,2.30
2023-05-16T15:35:12.365Z,2.93
2023-05-16T15:37:42.394Z,2.30
2023-05-16T15:40:12.039Z,2.27
2023-05-16T15:42:42.333Z,2.10
2023-05-16T15:45:11.947Z,2.10
2023-05-16T15:47:40.308Z,2.37
2023-05-16T15:50:08.985Z,3.30
2023-05-16T15:52:37.405Z,2.97
2023-05-16T15:55:07.992Z,3.03
2023-05-16T15:57:36.345Z,3.10
2023-05-16T16:00:05.874Z,3.23
2023-05-16T16:02:40.366Z,3.07
2023-05-16T16:05:09.783Z,2.50
2023-05-16T16:07:38.006Z,2.70
2023-05-16T16:10:09.242Z,2.70
2023-05-16T16:12:37.616Z,1.93
2023-05-16T16:15:07.680Z,2.00
2023-05-16T16:17:36.266Z,2.50
2023-05-16T16:20:04.971Z,2.57
2023-05-16T16:22:33.233Z,2.40
2023-05-16T16:25:01.506Z,2.20
2023-05-16T16:27:31.415Z,2.40
2023-05-16T16:30:00.023Z,2.73
2023-05-16T16:32:28.361Z,2.37
2023-05-16T16:34:56.796Z,2.17
2023-05-16T16:37:25.217Z,2.57
2023-05-16T16:39:53.513Z,2.53
2023-05-16T16:42:21.676Z,2.60
2023-05-16T16:44:51.640Z,2.57
2023-05-16T16:47:20.496Z,2.50
2023-05-16T16:49:48.652Z,2.60
2023-05-16T16:52:16.859Z,2.40
2023-05-16T16:54:45.327Z,2.53
2023-05-16T16:57:13.592Z,2.60
2023-05-16T16:59:41.929Z,2.57
2023-05-16T17:02:11.871Z,2.77
2023-05-16T17:04:40.609Z,2.70
2023-05-16T17:07:09.086Z,2.50
2023-05-16T17:09:39.519Z,2.60
2023-05-16T17:12:14.952Z,3.00
2023-05-16T17:14:43.993Z,3.13
2023-05-16T17:17:13.798Z,2.63
2023-05-16T17:19:42.187Z,3.00
2023-05-16T17:22:10.745Z,2.53
2023-05-16T17:24:38.924Z,2.57
2023-05-16T17:27:07.845Z,2.50
2023-05-16T17:29:37.478Z,2.53
2023-05-16T17:32:06.630Z,2.30
2023-05-16T17:34:36.666Z,2.50
2023-05-16T17:37:06.663Z,2.37
2023-05-16T17:39:35.984Z,2.40
2023-05-16T17:42:07.122Z,2.40
2023-05-16T17:44:35.905Z,2.20
2023-05-16T17:47:04.374Z,2.33
2023-05-16T17:49:33.016Z,2.50
2023-05-16T17:52:03.136Z,2.40
2023-05-16T17:54:32.429Z,2.17
2023-05-16T17:57:01.765Z,2.17
2023-05-16T17:59:30.536Z,2.47
2023-05-16T18:01:59.409Z,2.47
2023-05-16T18:04:28.445Z,2.30
2023-05-16T18:06:57.288Z,2.40
2023-05-16T18:09:28.081Z,2.60
2023-05-16T18:11:56.962Z,2.17
2023-05-16T18:14:26.044Z,3.20
2023-05-16T18:16:54.842Z,2.10
2023-05-16T18:19:24.193Z,2.03
2023-05-16T18:21:53.506Z,2.13
2023-05-16T18:24:24.325Z,1.80
2023-05-16T18:26:54.217Z,2.10
2023-05-16T18:29:23.652Z,1.50
2023-05-16T18:31:51.865Z,1.87
2023-05-16T18:34:20.135Z,2.90
2023-05-16T18:36:49.188Z,1.80
2023-05-16T18:39:19.423Z,1.97
2023-05-16T18:41:48.547Z,2.30
2023-05-16T18:44:19.000Z,1.70
2023-05-16T18:46:48.990Z,1.50
2023-05-16T18:49:17.680Z,1.40
2023-05-16T18:51:46.312Z,1.53
2023-05-16T18:54:14.964Z,1.80
2023-05-16T18:56:43.834Z,1.53
2023-05-16T18:59:12.829Z,1.70
2023-05-16T19:01:42.530Z,1.50
2023-05-16T19:04:11.537Z,1.57
2023-05-16T19:06:39.762Z,1.60
2023-05-16T19:09:09.377Z,1.53
2023-05-16T19:11:38.065Z,1.50
2023-05-16T19:14:08.290Z,1.70
2023-05-16T19:16:37.279Z,1.70
2023-05-16T19:19:08.142Z,1.73
2023-05-16T19:21:36.638Z,2.13
2023-05-16T19:24:04.966Z,1.77
2023-05-16T19:26:33.855Z,1.77
2023-05-16T19:29:04.120Z,1.70
2023-05-16T19:31:33.923Z,1.53
2023-05-16T19:34:02.318Z,1.40
2023-05-16T19:36:32.063Z,1.40
2023-05-16T19:39:00.379Z,1.47
2023-05-16T19:41:29.278Z,1.27
2023-05-16T19:43:57.744Z,1.33
2023-05-16T19:46:25.992Z,1.23
2023-05-16T19:48:54.488Z,1.30
2023-05-16T19:51:33.471Z,1.30
2023-05-16T19:54:10.237Z,1.50
2023-05-16T19:56:38.693Z,1.43
2023-05-16T19:59:07.299Z,1.27
2023-05-16T20:01:35.894Z,1.10
2023-05-16T20:04:05.595Z,1.30
2023-05-16T20:06:34.068Z,1.27
2023-05-16T20:09:02.450Z,1.10
2023-05-16T20:11:32.140Z,1.37
2023-05-16T20:14:00.787Z,1.40
2023-05-16T20:16:29.321Z,1.37
2023-05-16T20:18:58.254Z,1.00
2023-05-16T20:21:26.711Z,1.10
2023-05-16T20:23:54.900Z,1.30
2023-05-16T20:26:23.165Z,1.00
2023-05-16T20:28:55.048Z,1.20
2023-05-16T20:31:23.501Z,1.27
2023-05-16T20:33:52.404Z,1.10
2023-05-16T20:36:20.811Z,1.20
2023-05-16T20:38:49.258Z,1.20
2023-05-16T20:41:17.664Z,0.90
2023-05-16T20:43:46.961Z,1.20
2023-05-16T20:46:16.953Z,0.97
2023-05-16T20:48:45.509Z,1.13
2023-05-16T20:51:13.769Z,0.90
2023-05-16T20:53:42.221Z,0.87
2023-05-16T20:56:10.527Z,1.00
2023-05-16T20:58:42.230Z,1.00
2023-05-16T21:01:12.170Z,0.90
2023-05-16T21:03:42.001Z,0.93
2023-05-16T21:06:10.477Z,0.83
2023-05-16T21:08:38.953Z,0.80
2023-05-16T21:11:07.325Z,0.70
2023-05-16T21:13:35.566Z,0.70
2023-05-16T21:16:07.908Z,0.80
2023-05-16T21:18:36.276Z,0.50
2023-05-16T21:21:06.642Z,0.70
2023-05-16T21:23:35.232Z,0.60
2023-05-16T21:26:03.612Z,0.40
2023-05-16T21:28:36.864Z,0.70
2023-05-16T21:31:08.264Z,0.70
2023-05-16T21:33:36.552Z,0.77
2023-05-16T21:36:07.074Z,0.60
2023-05-16T21:38:35.526Z,0.70
2023-05-16T21:41:03.836Z,0.50
2023-05-16T21:43:32.104Z,0.70
2023-05-16T21:46:00.595Z,0.63
2023-05-16T21:48:29.022Z,0.60
2023-05-16T21:50:57.453Z,0.43
2023-05-16T21:53:27.344Z,0.70
2023-05-16T21:55:55.676Z,0.70
2023-05-16T21:58:25.382Z,0.50
2023-05-16T22:00:53.985Z,0.50
2023-05-16T22:03:23.079Z,0.70
2023-05-16T22:05:51.716Z,0.43
2023-05-16T22:08:19.993Z,0.60
2023-05-16T22:10:49.890Z,0.70
2023-05-16T22:13:20.089Z,0.70
2023-05-16T22:16:03.338Z,0.50
2023-05-16T22:18:33.443Z,0.70
2023-05-16T22:21:02.374Z,0.57
2023-05-16T22:23:31.091Z,0.60
2023-05-16T22:26:00.808Z,0.60
2023-05-16T22:28:29.203Z,0.60
2023-05-16T22:30:57.474Z,0.60
2023-05-16T22:33:25.811Z,0.70
2023-05-16T22:35:54.198Z,0.60
2023-05-16T22:38:22.513Z,0.63
2023-05-16T22:40:51.221Z,0.50
2023-05-16T22:43:21.261Z,0.67
2023-05-16T22:45:51.638Z,0.73
2023-05-16T22:48:20.102Z,0.63
2023-05-16T22:50:48.348Z,0.70
2023-05-16T22:53:16.594Z,0.80
2023-05-16T22:55:44.827Z,0.40
2023-05-16T22:58:13.099Z,0.70
2023-05-16T23:00:42.839Z,0.80
2023-05-16T23:03:11.224Z,0.53
2023-05-16T23:05:39.633Z,0.60
2023-05-16T23:08:07.868Z,0.50
2023-05-16T23:10:36.749Z,0.47
2023-05-16T23:13:05.035Z,0.50
2023-05-16T23:15:33.177Z,0.47
2023-05-16T23:18:02.859Z,0.60
2023-05-16T23:20:31.160Z,0.50
2023-05-16T23:22:59.708Z,0.60
2023-05-16T23:25:28.185Z,0.47
2023-05-16T23:27:58.037Z,0.40
2023-05-16T23:30:26.278Z,0.50
2023-05-16T23:32:54.791Z,0.60
2023-05-16T23:35:24.511Z,0.40
2023-05-16T23:37:52.889Z,0.60
2023-05-16T23:40:21.131Z,0.60
2023-05-16T23:42:49.328Z,0.70
2023-05-16T23:45:17.790Z,0.60
2023-05-16T23:47:46.175Z,0.57
2023-05-16T23:50:15.848Z,0.60
2023-05-16T23:52:45.673Z,0.67
2023-05-16T23:55:14.117Z,0.50
2023-05-16T23:57:42.388Z,0.50
